Time;durP1;ratioP1;P1;durP2;ratioP2;P2;SDS_P1;SDS_P2;PMS_P1;PMS_P2;Temp;Humidity;BMP_temperature;BMP_pressure;BME280_temperature;BME280_humidity;BME280_pressure;Samples;Min_cycle;Max_cycle;Signal;HPM_P1;HPM_P2
2022/03/31 03:01:43;;;;;;;1.63;1.53;;;10.60;77.00;;;;;;5531367;23;20499;-73
2022/03/31 03:04:10;;;;;;;1.70;1.60;;;10.50;76.80;;;;;;4955943;28;20542;-73
2022/03/31 03:06:37;;;;;;;1.60;1.50;;;10.50;76.80;;;;;;4955568;28;20501;-73
2022/03/31 03:09:04;;;;;;;1.70;1.60;;;10.40;76.80;;;;;;4955775;28;20514;-73
2022/03/31 03:11:30;;;;;;;1.80;1.70;;;10.40;77.00;;;;;;4955476;28;20990;-73
2022/03/31 03:13:57;;;;;;;2.00;1.90;;;10.40;77.10;;;;;;5051817;23;20553;-71
2022/03/31 03:16:25;;;;;;;1.77;1.67;;;10.30;77.20;;;;;;4955320;28;20878;-72
2022/03/31 03:18:53;;;;;;;1.90;1.80;;;10.30;77.10;;;;;;4955672;28;20501;-72
2022/03/31 03:21:19;;;;;;;1.60;1.50;;;10.30;77.10;;;;;;4955229;28;20540;-72
2022/03/31 03:23:48;;;;;;;1.80;1.70;;;10.20;77.30;;;;;;4955137;28;20470;-72
2022/03/31 03:26:15;;;;;;;1.63;1.53;;;10.10;77.40;;;;;;4955281;28;20490;-73
2022/03/31 03:28:42;;;;;;;1.80;1.70;;;10.10;77.70;;;;;;4955199;28;20569;-73
2022/03/31 03:31:09;;;;;;;1.50;1.40;;;10.10;77.70;;;;;;4955101;28;20451;-73
2022/03/31 03:33:36;;;;;;;1.60;1.50;;;10.10;77.80;;;;;;4955124;28;20478;-72
2022/03/31 03:36:06;;;;;;;1.73;1.63;;;10.00;78.00;;;;;;4955169;28;20450;-72
2022/03/31 03:38:32;;;;;;;1.70;1.60;;;10.10;77.80;;;;;;4955069;28;20514;-72
2022/03/31 03:40:59;;;;;;;1.80;1.70;;;10.10;77.80;;;;;;4954780;28;20872;-73
2022/03/31 03:43:26;;;;;;;2.00;1.90;;;10.00;78.00;;;;;;4955002;28;20473;-73
2022/03/31 03:45:53;;;;;;;1.60;1.50;;;9.90;78.30;;;;;;4954950;28;20828;-73
2022/03/31 03:48:20;;;;;;;1.60;1.50;;;9.90;78.50;;;;;;4954716;28;20431;-72
2022/03/31 03:50:47;;;;;;;1.67;1.57;;;9.80;78.50;;;;;;4954291;28;20458;-73
2022/03/31 03:53:15;;;;;;;1.63;1.53;;;9.80;78.40;;;;;;4954823;28;20513;-72
2022/03/31 03:55:42;;;;;;;1.90;1.80;;;9.90;78.20;;;;;;4954816;28;20446;-73
2022/03/31 03:58:09;;;;;;;2.00;1.90;;;9.90;78.30;;;;;;4954914;28;20508;-73
2022/03/31 04:00:36;;;;;;;1.87;1.77;;;9.80;77.90;;;;;;4954866;28;20447;-73
2022/03/31 04:03:02;;;;;;;1.90;1.80;;;9.70;78.40;;;;;;4954600;28;20977;-73
2022/03/31 04:05:29;;;;;;;2.00;1.90;;;9.70;78.40;;;;;;4954873;28;20451;-73
2022/03/31 04:07:56;;;;;;;1.80;1.70;;;9.70;78.20;;;;;;4955414;28;20871;-74
2022/03/31 04:10:24;;;;;;;1.80;1.70;;;9.70;78.10;;;;;;4956429;28;20490;-73
2022/03/31 04:12:51;;;;;;;1.80;1.70;;;9.70;78.10;;;;;;4956433;28;20458;-74
2022/03/31 04:15:17;;;;;;;1.90;1.80;;;9.60;78.10;;;;;;4956339;28;20491;-73
2022/03/31 04:17:44;;;;;;;1.80;1.70;;;9.60;78.50;;;;;;4958011;28;20451;-74
2022/03/31 04:20:13;;;;;;;1.80;1.70;;;9.50;78.50;;;;;;4957469;28;20446;-73
2022/03/31 04:22:40;;;;;;;2.53;2.43;;;9.50;78.60;;;;;;4956071;28;20546;-72
2022/03/31 04:25:09;;;;;;;1.50;1.40;;;9.50;78.60;;;;;;4956213;28;20500;-74
2022/03/31 04:27:38;;;;;;;1.93;1.83;;;9.50;78.60;;;;;;4956293;28;20831;-73
2022/03/31 04:30:07;;;;;;;2.00;1.90;;;9.50;79.00;;;;;;4955800;28;21061;-74
2022/03/31 04:32:34;;;;;;;2.00;1.90;;;9.50;78.80;;;;;;4955702;28;20457;-73
2022/03/31 04:35:01;;;;;;;1.80;1.70;;;9.50;78.70;;;;;;4956580;28;20489;-73
2022/03/31 04:37:28;;;;;;;2.20;2.10;;;9.50;78.60;;;;;;4956161;28;20459;-74
2022/03/31 04:39:55;;;;;;;1.70;1.60;;;9.50;78.50;;;;;;4956280;28;20447;-73
2022/03/31 04:42:22;;;;;;;1.90;1.80;;;9.50;78.60;;;;;;4955324;28;20890;-73
2022/03/31 04:44:50;;;;;;;2.10;2.00;;;9.40;78.60;;;;;;4954388;28;20502;-72
2022/03/31 04:47:16;;;;;;;1.90;1.80;;;9.20;79.00;;;;;;4954489;28;20451;-73
2022/03/31 04:49:43;;;;;;;1.93;1.83;;;9.10;79.10;;;;;;4954431;28;20479;-73
2022/03/31 04:52:11;;;;;;;1.70;1.60;;;9.00;79.70;;;;;;4954493;28;20450;-73
2022/03/31 04:54:43;;;;;;;1.83;1.73;;;8.90;79.50;;;;;;4954751;28;20566;-72
2022/03/31 04:57:10;;;;;;;1.80;1.70;;;8.90;79.90;;;;;;4954700;28;20849;-72
2022/03/31 04:59:37;;;;;;;2.00;1.90;;;9.00;79.60;;;;;;4954780;28;20478;-72
2022/03/31 05:02:06;;;;;;;1.83;1.73;;;9.10;79.70;;;;;;4957050;28;20464;-72
2022/03/31 05:04:33;;;;;;;1.60;1.50;;;9.10;79.50;;;;;;4958125;28;20554;-72
2022/03/31 05:07:00;;;;;;;2.00;1.90;;;9.00;79.70;;;;;;4958142;28;20447;-72
2022/03/31 05:09:27;;;;;;;1.97;1.87;;;8.90;79.80;;;;;;4957470;28;20859;-72
2022/03/31 05:11:53;;;;;;;2.27;2.17;;;8.80;80.30;;;;;;4957745;28;20458;-72
2022/03/31 05:14:20;;;;;;;1.83;1.73;;;8.90;80.00;;;;;;4957480;28;20478;-72
2022/03/31 05:16:47;;;;;;;2.13;2.03;;;8.90;79.90;;;;;;4957537;28;20544;-72
2022/03/31 05:19:15;;;;;;;1.90;1.80;;;8.90;79.80;;;;;;4958389;28;20442;-72
2022/03/31 05:21:42;;;;;;;2.50;2.40;;;8.90;79.80;;;;;;4958010;28;20451;-72
2022/03/31 05:24:09;;;;;;;1.73;1.63;;;9.00;79.70;;;;;;4957072;28;21094;-72
2022/03/31 05:26:36;;;;;;;2.13;2.03;;;9.00;79.60;;;;;;4957427;28;20804;-71
2022/03/31 05:29:03;;;;;;;1.80;1.70;;;9.10;79.30;;;;;;4957148;28;20533;-71
2022/03/31 05:31:29;;;;;;;2.00;1.90;;;8.80;79.70;;;;;;4957440;28;20443;-71
2022/03/31 05:33:56;;;;;;;2.00;1.90;;;8.90;79.80;;;;;;4957260;28;20475;-71
2022/03/31 05:36:24;;;;;;;1.80;1.70;;;8.60;80.10;;;;;;4957293;28;20451;-71
2022/03/31 05:38:51;;;;;;;2.13;2.03;;;8.40;80.90;;;;;;4957186;28;20675;-72
2022/03/31 05:41:17;;;;;;;2.50;2.30;;;8.50;81.10;;;;;;4957122;28;20458;-72
2022/03/31 05:43:44;;;;;;;2.27;2.17;;;8.60;80.80;;;;;;4957183;28;20471;-72
2022/03/31 05:46:11;;;;;;;2.10;2.00;;;8.60;80.60;;;;;;4957085;28;20462;-72
2022/03/31 05:48:37;;;;;;;2.53;2.43;;;8.60;80.70;;;;;;4957038;28;20497;-72
2022/03/31 05:51:04;;;;;;;1.93;1.83;;;8.50;80.80;;;;;;4956823;28;20537;-72
2022/03/31 05:53:32;;;;;;;1.90;1.80;;;8.50;80.90;;;;;;4957918;28;20475;-72
2022/03/31 05:55:59;;;;;;;2.10;2.00;;;8.40;81.00;;;;;;4958523;28;20443;-72
2022/03/31 05:58:25;;;;;;;2.10;2.00;;;8.60;80.50;;;;;;4958375;28;20455;-72
2022/03/31 06:00:53;;;;;;;2.07;1.97;;;8.70;80.30;;;;;;4958434;28;20517;-73
2022/03/31 06:03:22;;;;;;;1.97;1.87;;;8.70;79.90;;;;;;4956406;28;20938;-72
2022/03/31 06:05:49;;;;;;;1.87;1.77;;;8.70;79.70;;;;;;4956623;28;20454;-72
2022/03/31 06:08:17;;;;;;;2.00;1.90;;;8.50;80.20;;;;;;4956569;28;20530;-72
2022/03/31 06:10:45;;;;;;;2.07;1.97;;;8.40;80.40;;;;;;4956515;28;20578;-72
2022/03/31 06:13:12;;;;;;;2.00;1.90;;;8.50;80.40;;;;;;4955979;28;20502;-71
2022/03/31 06:15:39;;;;;;;2.20;2.10;;;8.50;80.60;;;;;;4956135;28;20517;-72
2022/03/31 06:18:07;;;;;;;1.97;1.87;;;8.40;80.60;;;;;;4956461;28;20506;-71
2022/03/31 06:20:35;;;;;;;2.43;2.33;;;8.40;80.60;;;;;;4956045;28;20459;-72
2022/03/31 06:23:02;;;;;;;2.13;2.03;;;8.50;80.50;;;;;;4957085;28;20529;-72
2022/03/31 06:25:28;;;;;;;2.03;1.93;;;8.50;80.60;;;;;;4956064;28;20866;-73
2022/03/31 06:27:57;;;;;;;2.10;2.00;;;8.60;80.10;;;;;;4956377;28;20451;-72
2022/03/31 06:30:24;;;;;;;2.10;2.00;;;8.60;80.00;;;;;;4956101;28;20483;-72
2022/03/31 06:32:51;;;;;;;2.17;2.07;;;8.80;80.00;;;;;;4956258;28;20458;-72
2022/03/31 06:35:19;;;;;;;1.93;1.83;;;8.90;79.60;;;;;;4956305;28;20542;-72
2022/03/31 06:37:46;;;;;;;2.23;2.13;;;9.00;79.30;;;;;;4955859;28;20458;-71
2022/03/31 06:40:14;;;;;;;2.40;2.30;;;9.00;79.20;;;;;;4956281;28;20450;-71
2022/03/31 06:42:41;;;;;;;2.17;2.07;;;9.00;79.20;;;;;;4956078;28;20447;-71
2022/03/31 06:45:12;;;;;;;2.00;1.90;;;9.10;79.00;;;;;;4955997;28;20466;-72
2022/03/31 06:47:39;;;;;;;2.20;2.10;;;9.20;78.80;;;;;;4956007;28;20470;-72
2022/03/31 06:50:07;;;;;;;2.40;2.30;;;9.20;78.60;;;;;;4955892;28;20486;-73
2022/03/31 06:52:34;;;;;;;2.03;1.93;;;9.40;78.20;;;;;;4956747;28;20848;-72
2022/03/31 06:55:00;;;;;;;2.30;2.20;;;9.50;77.70;;;;;;4956553;28;20470;-73
2022/03/31 06:57:27;;;;;;;1.80;1.70;;;9.50;77.50;;;;;;4967143;28;20474;-72
2022/03/31 06:59:54;;;;;;;1.93;1.83;;;9.50;77.50;;;;;;4979169;28;20470;-71
2022/03/31 07:02:22;;;;;;;2.30;2.20;;;9.60;77.30;;;;;;4965755;28;20980;-72
2022/03/31 07:04:48;;;;;;;2.00;1.90;;;9.40;77.50;;;;;;4956050;28;20562;-72
2022/03/31 07:07:15;;;;;;;2.20;2.10;;;9.50;77.60;;;;;;4955893;28;20447;-72
2022/03/31 07:09:42;;;;;;;2.10;2.00;;;9.50;77.80;;;;;;4955790;28;20565;-73
2022/03/31 07:12:10;;;;;;;2.00;1.90;;;9.50;77.70;;;;;;4957233;28;20443;-73
2022/03/31 07:14:37;;;;;;;2.30;2.20;;;9.40;77.80;;;;;;4957302;28;20486;-74
2022/03/31 07:17:05;;;;;;;1.97;1.87;;;9.40;77.70;;;;;;4957077;28;20562;-73
2022/03/31 07:19:33;;;;;;;1.90;1.80;;;9.50;77.90;;;;;;4957945;28;20478;-74
2022/03/31 07:22:00;;;;;;;2.30;2.20;;;9.50;77.40;;;;;;4958277;28;20482;-74
2022/03/31 07:24:27;;;;;;;1.80;1.70;;;9.30;77.70;;;;;;4956869;28;20637;-71
2022/03/31 07:26:53;;;;;;;2.20;2.10;;;9.40;77.90;;;;;;4957262;28;20514;-71
2022/03/31 07:29:20;;;;;;;1.60;1.50;;;9.40;78.40;;;;;;4957473;28;20453;-72
2022/03/31 07:31:47;;;;;;;2.03;1.93;;;9.40;78.10;;;;;;4957434;28;20521;-75
2022/03/31 07:34:14;;;;;;;1.93;1.80;;;9.50;77.90;;;;;;4957384;28;20479;-72
2022/03/31 07:36:42;;;;;;;2.07;1.97;;;9.40;78.50;;;;;;4958465;28;20451;-71
2022/03/31 07:39:09;;;;;;;2.10;2.00;;;9.50;77.90;;;;;;4956884;28;20459;-71
2022/03/31 07:41:35;;;;;;;2.10;2.00;;;9.40;78.00;;;;;;4957040;28;20939;-72
2022/03/31 07:44:02;;;;;;;2.00;1.90;;;9.30;78.50;;;;;;4957320;28;20526;-72
2022/03/31 07:46:32;;;;;;;2.10;2.00;;;9.50;77.90;;;;;;4956983;28;20938;-72
2022/03/31 07:48:59;;;;;;;1.90;1.80;;;9.60;77.60;;;;;;4957026;28;20479;-71
2022/03/31 07:51:26;;;;;;;1.90;1.80;;;9.60;77.60;;;;;;4957169;28;20494;-73
2022/03/31 07:53:54;;;;;;;1.87;1.77;;;9.60;77.60;;;;;;4956447;28;21017;-72
2022/03/31 07:56:21;;;;;;;2.10;2.00;;;9.60;77.50;;;;;;4955042;28;20458;-72
2022/03/31 07:58:48;;;;;;;1.90;1.80;;;9.70;77.40;;;;;;4955964;28;20502;-72
2022/03/31 08:01:14;;;;;;;1.90;1.80;;;9.70;77.20;;;;;;4954952;28;20450;-72
2022/03/31 08:03:41;;;;;;;2.03;1.93;;;9.70;77.20;;;;;;4954930;28;20498;-72
2022/03/31 08:06:08;;;;;;;2.30;2.20;;;9.80;77.00;;;;;;4954995;28;20450;-72
2022/03/31 08:08:35;;;;;;;1.90;1.80;;;9.90;77.10;;;;;;4956374;28;20451;-73
2022/03/31 08:11:03;;;;;;;2.00;1.90;;;9.90;76.90;;;;;;4956724;28;20490;-72
2022/03/31 08:13:30;;;;;;;1.90;1.80;;;9.80;76.80;;;;;;4955187;28;20994;-72
2022/03/31 08:15:58;;;;;;;2.10;2.00;;;9.80;77.00;;;;;;4955343;28;20844;-72
2022/03/31 08:18:28;;;;;;;2.07;1.97;;;9.50;78.00;;;;;;4954821;28;20537;-72
2022/03/31 08:20:56;;;;;;;2.40;2.30;;;9.60;78.00;;;;;;4954528;28;20916;-72
2022/03/31 08:23:22;;;;;;;2.00;1.90;;;9.70;77.60;;;;;;4954595;28;20459;-72
2022/03/31 08:25:49;;;;;;;2.00;1.90;;;9.80;77.60;;;;;;4954835;28;20451;-71
2022/03/31 08:28:17;;;;;;;1.97;1.87;;;9.80;77.70;;;;;;4955563;28;20501;-72
2022/03/31 08:30:44;;;;;;;2.07;1.97;;;9.60;77.80;;;;;;4954632;28;20543;-73
2022/03/31 08:33:11;;;;;;;2.27;2.17;;;9.80;77.60;;;;;;4954667;28;20470;-72
2022/03/31 08:35:37;;;;;;;2.37;2.27;;;9.40;77.70;;;;;;4954850;28;20451;-72
2022/03/31 08:38:04;;;;;;;2.30;2.20;;;9.10;78.80;;;;;;4958384;28;20562;-71
2022/03/31 08:40:31;;;;;;;2.20;2.10;;;9.10;79.50;;;;;;4958301;28;20883;-72
2022/03/31 08:42:58;;;;;;;2.60;2.50;;;9.30;79.30;;;;;;4958315;28;20852;-72
2022/03/31 08:45:26;;;;;;;2.30;2.20;;;9.50;78.80;;;;;;4958207;28;20878;-72
2022/03/31 08:47:54;;;;;;;2.40;2.30;;;9.60;78.50;;;;;;4957942;28;21004;-72
2022/03/31 08:50:23;;;;;;;2.47;2.37;;;9.70;78.80;;;;;;4957830;28;20486;-72
2022/03/31 08:52:50;;;;;;;2.40;2.30;;;9.90;78.10;;;;;;4958127;28;20455;-71
2022/03/31 08:55:18;;;;;;;2.40;2.30;;;9.90;77.90;;;;;;4957976;28;20470;-72
2022/03/31 08:57:47;;;;;;;2.37;2.27;;;10.10;77.50;;;;;;4957943;28;20872;-71
2022/03/31 09:00:15;;;;;;;2.50;2.40;;;10.30;77.80;;;;;;4957745;28;20967;-72
2022/03/31 09:03:03;;;;;;;2.67;2.57;;;10.50;76.40;;;;;;4957698;28;20869;-72
2022/03/31 09:05:36;;;;;;;2.60;2.50;;;10.30;77.40;;;;;;4957886;28;20494;-72
2022/03/31 09:08:05;;;;;;;2.30;2.20;;;9.80;78.00;;;;;;4957955;28;20840;-72
2022/03/31 09:10:33;;;;;;;2.40;2.30;;;9.70;79.30;;;;;;4958249;28;20487;-72
2022/03/31 09:13:02;;;;;;;2.27;2.17;;;9.60;78.90;;;;;;4958060;28;20533;-71
2022/03/31 09:15:29;;;;;;;2.50;2.40;;;9.50;79.60;;;;;;5067128;23;20593;-73
2022/03/31 09:17:59;;;;;;;2.40;2.30;;;9.40;79.90;;;;;;4958080;28;20542;-73
2022/03/31 09:20:36;;;;;;;2.50;2.40;;;9.40;81.00;;;;;;4957951;28;20454;-75
2022/03/31 09:23:03;;;;;;;4.23;2.33;;;9.50;79.90;;;;;;4957972;28;20430;-74
2022/03/31 09:25:32;;;;;;;2.07;1.97;;;9.50;80.90;;;;;;4957492;28;20482;-74
2022/03/31 09:28:00;;;;;;;2.20;2.10;;;9.50;80.20;;;;;;4957727;28;20466;-75
2022/03/31 09:30:27;;;;;;;2.30;2.20;;;9.60;80.30;;;;;;4957637;28;20497;-75
2022/03/31 09:32:54;;;;;;;2.23;2.13;;;9.90;80.60;;;;;;4957671;28;20542;-74
2022/03/31 09:35:24;;;;;;;2.40;2.20;;;10.10;80.00;;;;;;4957582;28;20474;-74
2022/03/31 09:37:51;;;;;;;2.37;2.27;;;10.20;79.40;;;;;;4957264;28;20454;-74
2022/03/31 09:40:20;;;;;;;2.27;2.17;;;10.50;80.00;;;;;;4957576;28;20459;-74
2022/03/31 09:42:58;;;;;;;2.27;2.17;;;10.80;78.10;;;;;;4957480;28;20522;-74
2022/03/31 09:45:25;;;;;;;2.80;2.70;;;10.60;77.40;;;;;;4957028;28;20860;-74
2022/03/31 09:47:52;;;;;;;2.30;2.20;;;10.30;78.40;;;;;;4956423;28;20451;-74
2022/03/31 09:50:21;;;;;;;2.80;2.70;;;10.30;79.00;;;;;;4957277;28;20458;-74
2022/03/31 09:52:48;;;;;;;2.20;2.10;;;10.60;77.90;;;;;;4957768;28;20498;-74
2022/03/31 09:55:18;;;;;;;2.20;2.10;;;10.50;78.30;;;;;;4957259;28;20549;-74
2022/03/31 09:57:47;;;;;;;2.50;2.40;;;10.80;78.70;;;;;;4956851;28;20479;-74
2022/03/31 10:00:16;;;;;;;2.27;2.17;;;10.90;78.00;;;;;;4956670;28;20860;-74
2022/03/31 10:02:43;;;;;;;2.20;2.10;;;11.00;77.70;;;;;;4957038;28;20969;-74
2022/03/31 10:05:10;;;;;;;1.97;1.87;;;11.30;76.90;;;;;;4956980;28;20470;-74
2022/03/31 10:07:38;;;;;;;2.40;2.30;;;11.60;74.90;;;;;;4956691;28;21025;-74
2022/03/31 10:10:06;;;;;;;2.40;2.30;;;11.60;75.30;;;;;;4956966;28;20455;-74
2022/03/31 10:12:38;;;;;;;2.10;2.00;;;11.60;74.90;;;;;;4956838;28;20537;-74
2022/03/31 10:15:10;;;;;;;2.10;2.00;;;11.50;75.80;;;;;;4956554;28;20534;-74
2022/03/31 10:17:37;;;;;;;2.00;1.90;;;11.40;75.30;;;;;;4956830;28;20534;-74
2022/03/31 10:20:08;;;;;;;1.90;1.80;;;11.40;75.10;;;;;;4956444;28;20866;-74
2022/03/31 10:25:20;;;;;;;2.40;2.30;;;11.00;76.40;;;;;;4956556;28;20469;-73
2022/03/31 10:27:50;;;;;;;2.30;2.20;;;11.00;77.60;;;;;;4956678;28;20541;-74
2022/03/31 10:30:18;;;;;;;2.20;2.10;;;11.10;76.90;;;;;;4956568;28;20455;-73
2022/03/31 10:32:54;;;;;;;2.20;2.10;;;11.10;77.00;;;;;;4956563;28;20502;-74
2022/03/31 10:35:23;;;;;;;2.40;2.30;;;11.00;76.70;;;;;;4956519;28;20477;-73
2022/03/31 10:37:49;;;;;;;2.10;2.00;;;10.80;76.50;;;;;;4956464;28;20534;-73
2022/03/31 10:40:30;;;;;;;2.23;2.13;;;10.80;77.20;;;;;;4956394;28;20450;-74
2022/03/31 10:42:57;;;;;;;2.33;2.23;;;10.80;76.60;;;;;;4956405;28;20439;-73
2022/03/31 10:45:34;;;;;;;1.97;1.87;;;10.80;77.60;;;;;;4956271;28;20561;-74
2022/03/31 10:48:01;;;;;;;2.10;2.00;;;10.70;78.30;;;;;;4956048;28;20861;-73
2022/03/31 10:50:28;;;;;;;1.90;1.80;;;10.80;77.60;;;;;;4956161;28;20451;-73
2022/03/31 10:53:00;;;;;;;2.20;2.10;;;10.80;77.70;;;;;;4956066;28;20486;-73
2022/03/31 10:55:37;;;;;;;2.20;2.10;;;10.80;78.00;;;;;;4956040;28;20533;-74
2022/03/31 10:58:04;;;;;;;2.20;2.10;;;10.80;78.00;;;;;;4956077;28;20431;-74
2022/03/31 11:00:31;;;;;;;2.07;1.80;;;11.00;78.10;;;;;;4955768;28;20455;-74
2022/03/31 11:02:58;;;;;;;2.17;2.07;;;11.00;76.90;;;;;;4958374;28;20454;-73
2022/03/31 11:05:27;;;;;;;2.00;1.90;;;10.90;77.20;;;;;;4958968;28;20502;-75
2022/03/31 11:08:02;;;;;;;2.40;2.30;;;11.10;77.30;;;;;;4958198;28;20451;-73
2022/03/31 11:10:29;;;;;;;2.10;2.00;;;11.40;77.00;;;;;;4958518;28;20431;-73
2022/03/31 11:12:58;;;;;;;2.00;1.90;;;11.40;76.50;;;;;;4958597;28;20454;-74
2022/03/31 11:15:25;;;;;;;2.10;2.00;;;11.40;76.20;;;;;;4957698;28;20539;-75
2022/03/31 11:18:00;;;;;;;2.30;2.20;;;11.60;75.20;;;;;;4958836;28;20466;-73
2022/03/31 11:20:27;;;;;;;1.80;1.70;;;11.80;75.20;;;;;;4958165;28;20443;-73
2022/03/31 11:22:59;;;;;;;2.17;2.07;;;11.70;74.50;;;;;;4958088;28;20474;-73
2022/03/31 11:25:26;;;;;;;2.00;1.90;;;11.80;75.20;;;;;;4957824;28;20903;-74
2022/03/31 11:27:53;;;;;;;2.17;2.07;;;11.90;74.90;;;;;;4957922;28;20478;-74
2022/03/31 11:30:24;;;;;;;2.20;2.10;;;12.10;73.60;;;;;;4958918;28;20505;-73
2022/03/31 11:32:53;;;;;;;2.47;2.37;;;12.20;72.90;;;;;;4957274;28;20486;-73
2022/03/31 11:35:22;;;;;;;2.20;2.10;;;12.10;73.90;;;;;;4958800;28;20478;-73
2022/03/31 11:37:50;;;;;;;2.27;2.07;;;12.10;74.40;;;;;;4958816;28;20442;-74
2022/03/31 11:40:22;;;;;;;2.17;2.07;;;12.20;73.10;;;;;;4957523;28;20455;-73
2022/03/31 11:42:50;;;;;;;2.20;2.10;;;12.20;72.80;;;;;;4956542;28;20450;-74
2022/03/31 11:45:26;;;;;;;2.10;2.00;;;12.30;73.50;;;;;;4956606;28;21029;-73
2022/03/31 11:47:57;;;;;;;2.40;2.30;;;12.20;72.80;;;;;;4957585;28;20447;-74
2022/03/31 11:50:24;;;;;;;2.03;1.93;;;12.00;74.10;;;;;;4957162;28;20465;-73
2022/03/31 11:52:52;;;;;;;2.20;2.10;;;11.80;73.90;;;;;;4958301;28;20497;-74
2022/03/31 11:55:20;;;;;;;2.50;2.40;;;11.80;74.20;;;;;;4956160;28;20569;-73
2022/03/31 11:57:55;;;;;;;2.43;2.33;;;11.80;75.50;;;;;;4956842;28;20896;-74
2022/03/31 12:00:25;;;;;;;2.30;2.20;;;11.70;74.70;;;;;;4956611;28;20947;-74
2022/03/31 12:02:59;;;;;;;2.30;2.20;;;11.60;75.40;;;;;;4956860;28;20451;-74
2022/03/31 12:05:26;;;;;;;1.80;1.70;;;11.80;75.00;;;;;;4956636;28;20467;-74
2022/03/31 12:07:53;;;;;;;2.33;2.23;;;11.60;74.80;;;;;;4956192;28;20931;-75
2022/03/31 12:10:21;;;;;;;2.20;2.00;;;11.80;75.90;;;;;;4956382;28;20459;-74
2022/03/31 12:12:49;;;;;;;2.20;2.10;;;12.10;76.00;;;;;;4959685;28;20486;-73
2022/03/31 12:15:21;;;;;;;2.10;2.00;;;12.30;75.20;;;;;;4959831;28;20548;-73
2022/03/31 12:18:04;;;;;;;1.90;1.80;;;12.20;73.10;;;;;;4960245;28;20458;-74
2022/03/31 12:20:32;;;;;;;2.03;1.93;;;11.90;73.50;;;;;;4960579;28;20431;-74
2022/03/31 12:22:59;;;;;;;2.10;2.00;;;11.70;74.60;;;;;;4960757;28;20521;-74
2022/03/31 12:25:34;;;;;;;1.93;1.83;;;11.70;74.90;;;;;;4960788;28;20475;-74
2022/03/31 12:28:04;;;;;;;2.13;2.03;;;11.80;74.90;;;;;;4960121;28;20795;-74
2022/03/31 12:30:42;;;;;;;2.00;1.90;;;12.00;74.70;;;;;;4960445;28;20501;-74
2022/03/31 12:33:25;;;;;;;2.47;2.37;;;12.20;74.90;;;;;;4960974;28;20481;-74
2022/03/31 12:36:00;;;;;;;2.30;2.20;;;12.40;73.50;;;;;;4961221;28;20525;-74
2022/03/31 12:38:38;;;;;;;1.90;1.80;;;12.50;72.70;;;;;;4961178;28;20485;-74
2022/03/31 12:41:08;;;;;;;2.10;2.00;;;12.50;73.00;;;;;;4962478;28;20435;-74
2022/03/31 12:43:35;;;;;;;1.90;1.80;;;12.60;72.50;;;;;;4962715;28;20872;-73
2022/03/31 12:46:13;;;;;;;2.50;2.40;;;12.70;72.70;;;;;;4961329;28;20821;-74
2022/03/31 12:48:53;;;;;;;1.80;1.70;;;12.80;71.90;;;;;;4961730;28;20445;-74
2022/03/31 12:51:20;;;;;;;2.17;2.00;;;12.80;71.50;;;;;;4960438;28;20435;-74
2022/03/31 12:53:47;;;;;;;2.27;2.17;;;12.60;71.70;;;;;;4961731;28;20467;-73
2022/03/31 12:56:22;;;;;;;1.90;1.80;;;12.50;72.20;;;;;;4961709;28;20451;-75
2022/03/31 12:58:51;;;;;;;1.73;1.63;;;12.40;71.90;;;;;;4962170;28;20439;-74
2022/03/31 13:01:20;;;;;;;2.07;1.97;;;12.30;72.10;;;;;;4961222;28;20459;-75
2022/03/31 13:03:47;;;;;;;1.90;1.80;;;12.40;72.60;;;;;;4960658;28;20482;-75
2022/03/31 13:06:18;;;;;;;2.00;1.90;;;12.50;72.60;;;;;;4960447;28;20458;-74
2022/03/31 13:08:45;;;;;;;1.83;1.73;;;12.40;72.50;;;;;;4960068;28;20458;-74
2022/03/31 13:11:13;;;;;;;2.00;1.90;;;12.20;73.10;;;;;;4959847;28;20447;-75
2022/03/31 13:13:40;;;;;;;2.10;2.00;;;12.10;73.60;;;;;;4959494;28;20458;-74
2022/03/31 13:16:07;;;;;;;2.00;1.90;;;12.10;73.90;;;;;;4960668;28;20514;-74
2022/03/31 13:18:35;;;;;;;2.53;2.43;;;12.30;73.60;;;;;;4961185;28;20462;-73
2022/03/31 13:21:02;;;;;;;1.83;1.73;;;12.50;73.30;;;;;;4960453;28;20458;-74
2022/03/31 13:23:32;;;;;;;1.80;1.70;;;12.70;72.80;;;;;;4961234;28;20450;-75
2022/03/31 13:25:59;;;;;;;1.87;1.77;;;12.70;72.60;;;;;;4961268;28;20458;-74
2022/03/31 13:28:26;;;;;;;1.90;1.80;;;12.60;72.30;;;;;;4960893;28;20470;-74
2022/03/31 13:30:52;;;;;;;2.17;2.07;;;12.70;72.20;;;;;;4960594;28;20955;-75
2022/03/31 13:33:20;;;;;;;2.10;2.00;;;12.70;72.20;;;;;;4962534;28;20494;-74
2022/03/31 13:35:47;;;;;;;1.70;1.60;;;12.70;72.40;;;;;;4959875;28;20538;-75
2022/03/31 13:38:14;;;;;;;2.10;2.00;;;12.80;71.90;;;;;;4960601;28;20455;-74
2022/03/31 13:40:42;;;;;;;2.10;2.00;;;12.90;72.00;;;;;;4960738;28;20458;-75
2022/03/31 13:43:09;;;;;;;1.83;1.73;;;12.70;72.10;;;;;;4960133;28;20453;-74
2022/03/31 13:45:36;;;;;;;1.90;1.80;;;12.30;73.50;;;;;;4960161;28;20970;-75
2022/03/31 13:48:03;;;;;;;2.00;1.90;;;12.20;74.30;;;;;;4960509;28;20451;-75
2022/03/31 13:50:30;;;;;;;2.10;2.00;;;12.30;74.30;;;;;;4960487;28;20455;-74
2022/03/31 13:55:42;;;;;;;1.90;1.80;;;12.30;74.30;;;;;;4957391;28;20441;-75
2022/03/31 14:01:10;;;;;;;2.27;2.17;;;12.20;74.90;;;;;;4957038;29;20926;-75
2022/03/31 14:03:38;;;;;;;2.00;1.90;;;12.20;74.80;;;;;;4957082;28;20449;-74
2022/03/31 14:06:05;;;;;;;1.97;1.87;;;12.30;74.60;;;;;;4957092;28;20459;-74
2022/03/31 14:08:34;;;;;;;1.87;1.77;;;12.40;73.90;;;;;;4956964;28;20490;-74
2022/03/31 14:11:02;;;;;;;2.20;2.10;;;12.40;74.00;;;;;;4956471;28;20905;-74
2022/03/31 14:13:29;;;;;;;2.27;2.17;;;12.40;73.80;;;;;;4956374;28;20890;-74
2022/03/31 14:15:56;;;;;;;2.10;2.00;;;12.30;74.00;;;;;;4956679;28;20514;-74
2022/03/31 14:18:22;;;;;;;2.13;2.03;;;12.40;74.70;;;;;;4956505;28;20829;-73
2022/03/31 14:20:49;;;;;;;2.37;2.27;;;12.30;75.20;;;;;;4956351;28;20878;-74
2022/03/31 14:23:16;;;;;;;2.23;2.13;;;12.10;75.50;;;;;;4956748;28;20443;-74
2022/03/31 14:25:42;;;;;;;2.20;2.10;;;12.00;76.50;;;;;;4956648;28;20502;-74
2022/03/31 14:28:10;;;;;;;2.17;2.07;;;11.90;76.40;;;;;;4956810;28;20510;-74
2022/03/31 14:30:38;;;;;;;2.37;2.27;;;11.90;76.40;;;;;;4956788;28;20459;-75
2022/03/31 14:33:06;;;;;;;2.70;2.60;;;11.80;77.20;;;;;;4956437;28;20487;-75
2022/03/31 14:35:33;;;;;;;2.30;2.20;;;11.80;77.50;;;;;;4956016;28;20553;-74
2022/03/31 14:38:01;;;;;;;2.07;1.97;;;11.70;77.50;;;;;;4956502;28;20486;-74
2022/03/31 14:40:28;;;;;;;2.20;2.10;;;11.70;78.10;;;;;;4956596;28;20455;-74
2022/03/31 14:42:55;;;;;;;2.03;1.93;;;11.80;78.40;;;;;;4956471;29;20455;-75
2022/03/31 14:45:23;;;;;;;2.23;2.13;;;11.60;78.00;;;;;;4956386;28;20483;-74
2022/03/31 14:47:50;;;;;;;2.30;2.20;;;11.50;78.30;;;;;;4956298;28;20454;-75
2022/03/31 14:50:17;;;;;;;1.90;1.80;;;11.40;78.50;;;;;;4956274;28;20506;-75
2022/03/31 14:52:44;;;;;;;2.00;1.90;;;11.50;78.90;;;;;;4956109;28;20910;-74
2022/03/31 14:55:11;;;;;;;2.30;2.20;;;11.60;78.60;;;;;;4955833;28;20475;-75
2022/03/31 14:57:38;;;;;;;1.93;1.83;;;11.70;78.70;;;;;;4956730;28;20510;-74
2022/03/31 15:00:06;;;;;;;2.40;2.30;;;11.80;78.40;;;;;;4956350;28;20537;-75
2022/03/31 15:02:34;;;;;;;2.50;2.40;;;11.80;78.20;;;;;;4956068;28;20457;-74
2022/03/31 15:05:00;;;;;;;2.37;2.27;;;11.90;79.00;;;;;;4955972;28;20522;-75
2022/03/31 15:07:28;;;;;;;2.17;2.07;;;11.90;78.50;;;;;;4955969;28;20455;-74
2022/03/31 15:15:20;;;;;;;2.10;2.00;;;12.00;77.60;;;;;;5052109;23;20490;-71
2022/03/31 15:17:48;;;;;;;2.57;2.37;;;11.90;77.60;;;;;;4955684;28;20451;-71
2022/03/31 15:20:15;;;;;;;2.03;1.93;;;11.80;77.50;;;;;;4955661;28;20455;-72
2022/03/31 15:22:42;;;;;;;2.33;2.23;;;11.70;78.10;;;;;;4955577;28;20443;-71
2022/03/31 15:25:10;;;;;;;2.33;2.23;;;11.70;78.20;;;;;;4955313;28;20471;-71
2022/03/31 15:27:37;;;;;;;2.50;2.40;;;11.80;78.60;;;;;;4955430;28;20451;-70
2022/03/31 15:30:05;;;;;;;2.20;2.10;;;11.80;78.20;;;;;;4955508;28;20451;-70
2022/03/31 15:32:31;;;;;;;2.40;2.30;;;11.80;77.40;;;;;;4955384;28;20483;-71
2022/03/31 15:34:59;;;;;;;2.50;2.40;;;11.90;78.00;;;;;;4954798;28;21017;-70
2022/03/31 15:37:26;;;;;;;2.73;2.60;;;11.80;78.20;;;;;;4955167;28;20450;-72
2022/03/31 15:39:54;;;;;;;2.37;2.17;;;11.70;78.00;;;;;;4955007;28;20464;-70
2022/03/31 15:42:21;;;;;;;2.13;2.03;;;11.60;77.60;;;;;;4955198;28;20446;-71
2022/03/31 15:44:48;;;;;;;2.53;2.43;;;11.50;77.80;;;;;;4954897;28;20525;-71
2022/03/31 15:47:15;;;;;;;2.47;2.37;;;11.60;77.70;;;;;;4954488;28;20458;-70
2022/03/31 15:49:43;;;;;;;2.50;2.40;;;11.50;77.90;;;;;;4955174;28;20447;-70
2022/03/31 15:52:12;;;;;;;2.70;2.60;;;11.50;78.20;;;;;;4954704;28;20943;-70
2022/03/31 15:54:39;;;;;;;2.40;2.30;;;11.30;78.00;;;;;;4954789;28;20521;-70
2022/03/31 15:57:06;;;;;;;2.60;2.50;;;11.30;78.10;;;;;;4955602;28;20480;-70
2022/03/31 15:59:33;;;;;;;2.83;2.73;;;11.30;77.80;;;;;;4955100;28;20478;-72
2022/03/31 16:02:01;;;;;;;2.33;2.20;;;11.10;78.10;;;;;;4955031;28;20501;-70
2022/03/31 16:04:27;;;;;;;2.67;2.57;;;11.20;78.00;;;;;;4954878;28;21020;-71
2022/03/31 16:06:54;;;;;;;2.50;2.40;;;11.10;78.00;;;;;;4954979;28;20501;-70
2022/03/31 16:09:23;;;;;;;2.53;2.43;;;11.10;77.60;;;;;;4955397;28;20454;-71